Time;durP1;ratioP1;P1;durP2;ratioP2;P2;SDS_P1;SDS_P2;PMS_P1;PMS_P2;Temp;Humidity;BMP_temperature;BMP_pressure;BME280_temperature;BME280_humidity;BME280_pressure;Samples;Min_cycle;Max_cycle;Signal;HPM_P1;HPM_P2
2022/09/03 00:00:44;;;;;;;1.90;1.70;;;24.90;48.80;;;;;;4936964;28;20459;-71
2022/09/03 00:03:30;;;;;;;2.50;1.90;;;24.90;48.80;;;;;;4953827;28;20501;-71
2022/09/03 00:06:09;;;;;;;2.37;1.80;;;24.90;48.90;;;;;;4939573;28;20466;-71
2022/09/03 00:08:38;;;;;;;2.20;1.60;;;24.90;48.90;;;;;;4938570;29;20597;-71
2022/09/03 00:11:13;;;;;;;2.00;1.80;;;24.90;48.90;;;;;;4959154;28;20411;-72
2022/09/03 00:13:50;;;;;;;2.13;1.97;;;24.90;48.90;;;;;;4966182;28;20456;-72
2022/09/03 00:16:20;;;;;;;2.03;1.70;;;24.90;48.90;;;;;;4962380;28;20501;-71
2022/09/03 00:19:00;;;;;;;1.80;1.70;;;24.80;48.90;;;;;;4978456;28;20488;-71
2022/09/03 00:21:50;;;;;;;1.83;1.73;;;24.80;48.90;;;;;;4947344;28;20469;-71
2022/09/03 00:24:22;;;;;;;2.03;1.70;;;24.80;49.00;;;;;;4974517;28;20495;-71
2022/09/03 00:27:02;;;;;;;2.90;1.90;;;24.80;49.00;;;;;;4962457;28;20524;-71
2022/09/03 00:29:42;;;;;;;2.00;1.73;;;24.80;49.00;;;;;;4979355;28;20477;-71
2022/09/03 00:32:25;;;;;;;2.00;1.80;;;24.80;48.90;;;;;;4960535;28;20429;-72
2022/09/03 00:35:01;;;;;;;2.30;2.10;;;24.70;48.90;;;;;;4972151;28;20991;-71
2022/09/03 00:37:33;;;;;;;2.77;1.50;;;24.70;49.00;;;;;;4960355;28;20449;-71
2022/09/03 00:40:01;;;;;;;3.13;2.10;;;24.70;49.00;;;;;;4979370;28;20402;-71
2022/09/03 00:42:43;;;;;;;2.50;1.90;;;24.70;49.00;;;;;;4961628;28;20453;-71
2022/09/03 00:45:38;;;;;;;2.50;2.30;;;24.70;49.00;;;;;;4978167;28;20407;-71
2022/09/03 00:48:06;;;;;;;3.20;1.50;;;24.70;49.00;;;;;;4943100;29;20819;-73
2022/09/03 00:50:45;;;;;;;2.00;1.80;;;24.70;49.00;;;;;;4960231;28;20418;-71
2022/09/03 00:53:23;;;;;;;3.00;1.90;;;24.70;49.10;;;;;;4964447;28;20591;-70
2022/09/03 00:55:57;;;;;;;1.97;1.67;;;24.60;49.00;;;;;;4966845;28;20782;-71
2022/09/03 00:58:39;;;;;;;1.83;1.60;;;24.60;49.00;;;;;;4989869;28;20443;-71
2022/09/03 01:01:16;;;;;;;2.80;2.00;;;24.60;49.00;;;;;;4943370;28;20976;-71
2022/09/03 01:03:53;;;;;;;2.30;2.03;;;24.60;49.00;;;;;;4974457;28;20457;-70
2022/09/03 01:06:19;;;;;;;1.93;1.80;;;24.50;49.50;;;;;;4959671;28;20407;-71
2022/09/03 01:08:58;;;;;;;1.60;1.50;;;24.50;48.90;;;;;;4963307;28;20461;-71
2022/09/03 01:11:44;;;;;;;2.00;1.80;;;24.60;49.10;;;;;;4960988;28;20492;-71
2022/09/03 01:14:27;;;;;;;1.93;1.60;;;24.50;49.10;;;;;;4942793;29;20867;-71
2022/09/03 01:17:08;;;;;;;2.53;1.60;;;24.50;49.00;;;;;;4945812;28;20464;-72
2022/09/03 01:19:44;;;;;;;1.77;1.67;;;24.50;49.00;;;;;;4978953;28;20894;-71
2022/09/03 01:22:44;;;;;;;2.60;1.90;;;24.50;49.10;;;;;;4949127;28;20430;-70
2022/09/03 01:25:30;;;;;;;2.27;1.80;;;24.50;49.00;;;;;;4945406;29;20986;-71
2022/09/03 01:28:15;;;;;;;1.63;1.53;;;24.50;49.10;;;;;;4939244;29;20482;-71
2022/09/03 01:30:46;;;;;;;1.80;1.70;;;24.50;49.10;;;;;;4940380;28;20422;-70
2022/09/03 01:34:13;;;;;;;1.87;1.77;;;24.40;49.00;;;;;;4945923;28;20483;-70
2022/09/03 01:36:57;;;;;;;2.10;1.70;;;24.40;49.10;;;;;;4924898;28;20450;-71
2022/09/03 01:39:25;;;;;;;3.73;1.50;;;24.40;49.10;;;;;;4939481;29;20924;-71
2022/09/03 01:42:18;;;;;;;1.60;1.50;;;24.40;49.10;;;;;;4927237;28;20428;-71
2022/09/03 01:45:21;;;;;;;1.53;1.43;;;24.40;49.10;;;;;;4962356;28;20906;-71
2022/09/03 01:48:18;;;;;;;1.93;1.83;;;24.40;49.10;;;;;;4934245;28;20469;-71
2022/09/03 01:50:58;;;;;;;2.40;1.70;;;24.40;49.10;;;;;;4958291;28;20846;-71
2022/09/03 01:53:33;;;;;;;1.77;1.53;;;24.40;49.10;;;;;;4960681;28;20498;-71
2022/09/03 01:56:40;;;;;;;1.73;1.50;;;24.30;49.00;;;;;;4958484;28;20410;-70
2022/09/03 01:59:30;;;;;;;1.83;1.63;;;24.30;49.20;;;;;;4880862;29;20489;-71
2022/09/03 02:02:20;;;;;;;2.13;1.93;;;24.30;49.20;;;;;;4959802;28;20446;-71
2022/09/03 02:04:59;;;;;;;1.60;1.50;;;24.30;49.10;;;;;;5051846;23;20539;-71
2022/09/03 02:07:33;;;;;;;2.67;1.60;;;24.20;49.10;;;;;;4978326;28;20405;-70
2022/09/03 02:10:04;;;;;;;1.83;1.47;;;24.30;49.20;;;;;;4962583;28;20800;-71
2022/09/03 02:12:32;;;;;;;2.70;1.70;;;24.20;49.10;;;;;;4995705;28;20402;-71
2022/09/03 02:15:09;;;;;;;1.80;1.53;;;24.20;49.10;;;;;;4978467;28;20500;-71
2022/09/03 02:17:35;;;;;;;2.53;1.70;;;24.20;49.10;;;;;;4978717;28;20559;-71
2022/09/03 02:20:07;;;;;;;1.57;1.27;;;24.20;49.20;;;;;;4995667;28;20404;-71
2022/09/03 02:22:34;;;;;;;2.30;1.70;;;24.20;49.10;;;;;;4962219;28;20456;-71
2022/09/03 02:25:02;;;;;;;1.90;1.67;;;24.20;49.10;;;;;;4978173;28;20453;-71
2022/09/03 02:27:29;;;;;;;1.63;1.53;;;24.20;49.10;;;;;;4995436;28;20774;-71
2022/09/03 02:29:56;;;;;;;3.83;1.77;;;24.20;49.10;;;;;;4995359;28;20801;-71
2022/09/03 02:32:22;;;;;;;2.27;1.50;;;24.10;49.10;;;;;;4977724;28;20496;-71
2022/09/03 02:34:53;;;;;;;5.00;1.40;;;24.20;49.20;;;;;;4994489;28;20433;-71
2022/09/03 02:37:24;;;;;;;2.13;1.80;;;24.10;49.20;;;;;;4978030;28;20418;-71
2022/09/03 02:39:54;;;;;;;2.23;1.87;;;24.10;49.20;;;;;;4978524;28;20426;-71
2022/09/03 02:42:20;;;;;;;2.83;1.87;;;24.10;49.20;;;;;;4961570;28;20515;-72
2022/09/03 02:44:59;;;;;;;3.67;1.50;;;24.10;49.20;;;;;;4968515;28;20453;-71
2022/09/03 02:47:32;;;;;;;1.50;1.33;;;24.10;49.20;;;;;;4997297;28;20420;-71
2022/09/03 02:50:01;;;;;;;4.97;1.70;;;24.10;49.30;;;;;;5014664;28;20441;-71
2022/09/03 02:52:27;;;;;;;1.47;1.37;;;24.10;49.30;;;;;;4981137;28;20852;-71
2022/09/03 02:54:55;;;;;;;1.50;1.40;;;24.10;49.40;;;;;;5014468;28;20519;-71
2022/09/03 02:57:21;;;;;;;1.70;1.40;;;24.10;49.40;;;;;;4997060;28;20471;-70
2022/09/03 02:59:47;;;;;;;1.77;1.67;;;24.10;49.40;;;;;;4980856;28;20424;-70
2022/09/03 03:02:15;;;;;;;1.93;1.43;;;24.10;49.40;;;;;;4997032;28;20427;-71
2022/09/03 03:04:44;;;;;;;1.80;1.50;;;24.00;49.40;;;;;;4996835;28;20789;-71
2022/09/03 03:07:10;;;;;;;1.53;1.43;;;24.00;49.40;;;;;;4996776;28;20415;-71
2022/09/03 03:09:36;;;;;;;1.77;1.60;;;24.00;49.40;;;;;;4996679;28;20460;-71
2022/09/03 03:12:02;;;;;;;2.10;1.93;;;24.00;49.40;;;;;;5013769;28;20757;-70
2022/09/03 03:14:33;;;;;;;3.33;1.67;;;24.00;49.40;;;;;;5014248;28;20441;-71
2022/09/03 03:16:59;;;;;;;1.73;1.30;;;24.00;49.50;;;;;;4996838;28;20780;-71
2022/09/03 03:19:27;;;;;;;1.50;1.33;;;24.00;49.50;;;;;;4996725;28;20405;-71
2022/09/03 03:22:00;;;;;;;1.50;1.40;;;23.90;49.40;;;;;;4996572;28;20889;-71
2022/09/03 03:24:26;;;;;;;1.50;1.40;;;23.90;49.50;;;;;;4996493;28;20448;-70
2022/09/03 03:26:57;;;;;;;1.80;1.70;;;23.90;49.50;;;;;;4980463;28;20419;-71
2022/09/03 03:29:26;;;;;;;1.97;1.73;;;23.90;49.50;;;;;;4980180;28;20506;-71
2022/09/03 03:31:56;;;;;;;1.90;1.60;;;23.90;49.60;;;;;;4996668;28;20448;-71
2022/09/03 03:34:25;;;;;;;1.63;1.53;;;23.90;49.70;;;;;;4996360;28;20440;-71
2022/09/03 03:36:51;;;;;;;1.60;1.50;;;23.80;49.70;;;;;;4980218;28;20900;-71
2022/09/03 03:39:19;;;;;;;1.60;1.30;;;23.90;49.70;;;;;;5013645;28;20410;-71
2022/09/03 03:41:51;;;;;;;1.50;1.40;;;23.80;49.70;;;;;;4996412;28;20429;-71
2022/09/03 03:44:19;;;;;;;1.70;1.40;;;23.80;50.20;;;;;;4995917;28;20911;-71
2022/09/03 03:46:45;;;;;;;1.53;1.43;;;23.80;49.70;;;;;;4996196;28;20412;-71
2022/09/03 03:49:11;;;;;;;3.30;1.57;;;23.80;49.70;;;;;;5013482;28;20467;-71
2022/09/03 03:51:42;;;;;;;1.80;1.50;;;23.80;50.30;;;;;;4996130;28;20462;-71
2022/09/03 03:54:08;;;;;;;1.70;1.60;;;23.80;49.70;;;;;;4963755;28;20494;-71
2022/09/03 03:56:34;;;;;;;1.60;1.30;;;23.70;49.70;;;;;;4996049;28;20470;-71
2022/09/03 03:59:01;;;;;;;2.03;1.50;;;23.70;49.70;;;;;;4979993;28;20432;-71
2022/09/03 04:01:28;;;;;;;3.10;1.70;;;23.70;49.70;;;;;;4996181;28;20440;-71
2022/09/03 04:03:56;;;;;;;1.90;1.50;;;23.70;49.80;;;;;;4995766;28;20444;-71
2022/09/03 04:06:23;;;;;;;1.60;1.50;;;23.70;49.80;;;;;;4979686;28;20471;-70
2022/09/03 04:08:49;;;;;;;2.37;1.80;;;23.70;49.80;;;;;;4987966;28;20478;-71
2022/09/03 04:11:22;;;;;;;1.90;1.60;;;23.70;49.90;;;;;;4993763;28;20449;-71
2022/09/03 04:13:49;;;;;;;2.40;1.50;;;23.60;49.80;;;;;;4976616;28;20487;-71
2022/09/03 04:16:24;;;;;;;1.67;1.57;;;23.60;49.90;;;;;;4960618;28;20452;-70
2022/09/03 04:18:54;;;;;;;1.80;1.70;;;23.60;49.90;;;;;;4976662;28;20393;-71
2022/09/03 04:21:28;;;;;;;2.70;1.60;;;23.60;49.90;;;;;;4976271;28;20918;-71
2022/09/03 04:23:54;;;;;;;1.70;1.43;;;23.60;49.90;;;;;;4976366;28;20855;-71
2022/09/03 04:26:30;;;;;;;1.50;1.40;;;23.60;50.00;;;;;;4976724;28;20533;-71
2022/09/03 04:28:58;;;;;;;1.70;1.60;;;23.60;50.00;;;;;;4976178;28;20560;-71
2022/09/03 04:31:26;;;;;;;1.73;1.50;;;23.50;50.00;;;;;;4976241;28;20415;-71
2022/09/03 04:33:53;;;;;;;2.07;1.57;;;23.50;50.10;;;;;;4976117;28;20520;-71
2022/09/03 04:36:25;;;;;;;2.73;1.60;;;23.50;50.10;;;;;;4993685;28;20451;-71
2022/09/03 04:38:57;;;;;;;1.73;1.50;;;23.50;50.10;;;;;;4993447;28;20441;-71
2022/09/03 04:41:28;;;;;;;1.47;1.37;;;23.40;50.00;;;;;;4993500;28;20412;-71
2022/09/03 04:44:00;;;;;;;1.83;1.73;;;23.40;50.00;;;;;;4993395;28;20440;-71
2022/09/03 04:46:31;;;;;;;2.10;1.47;;;23.40;50.00;;;;;;4993726;28;20401;-71
2022/09/03 04:48:58;;;;;;;2.57;1.70;;;23.40;50.10;;;;;;4944074;28;20506;-71
2022/09/03 04:51:28;;;;;;;1.80;1.70;;;23.40;50.10;;;;;;4976319;28;20547;-71
2022/09/03 04:53:59;;;;;;;1.80;1.70;;;23.40;50.10;;;;;;4976406;28;20429;-70
2022/09/03 04:56:30;;;;;;;1.50;1.40;;;23.40;50.10;;;;;;4993766;28;20398;-70
2022/09/03 04:58:59;;;;;;;1.87;1.77;;;23.30;50.10;;;;;;4997413;28;20424;-71
2022/09/03 05:01:28;;;;;;;2.00;1.73;;;23.30;50.20;;;;;;4979310;28;20823;-70
2022/09/03 05:03:57;;;;;;;1.80;1.47;;;23.30;50.20;;;;;;4963093;28;20551;-70
2022/09/03 05:06:24;;;;;;;2.40;1.90;;;23.30;50.20;;;;;;4978942;28;20949;-71
2022/09/03 05:08:55;;;;;;;2.00;1.60;;;23.30;50.20;;;;;;4978654;28;20453;-71
2022/09/03 05:11:23;;;;;;;1.80;1.70;;;23.30;50.80;;;;;;4979048;28;20831;-70
2022/09/03 05:13:50;;;;;;;1.63;1.47;;;23.30;50.30;;;;;;4978681;28;20441;-71
2022/09/03 05:16:22;;;;;;;1.93;1.63;;;23.30;50.30;;;;;;4978988;28;20417;-71
2022/09/03 05:18:52;;;;;;;2.90;1.83;;;23.20;50.20;;;;;;4946744;28;20756;-71
2022/09/03 05:21:23;;;;;;;1.63;1.53;;;23.20;50.30;;;;;;4966132;28;20425;-71
2022/09/03 05:23:52;;;;;;;1.90;1.80;;;23.20;50.40;;;;;;4959286;28;20990;-71
2022/09/03 05:26:26;;;;;;;3.00;1.90;;;23.20;50.40;;;;;;4976696;28;20422;-71
2022/09/03 05:29:00;;;;;;;1.93;1.60;;;23.20;50.40;;;;;;4976362;28;20468;-71
2022/09/03 05:31:30;;;;;;;2.13;1.77;;;23.20;51.00;;;;;;4976422;28;20430;-71
2022/09/03 05:34:00;;;;;;;1.60;1.40;;;23.20;50.50;;;;;;4974429;28;20434;-71
2022/09/03 05:36:29;;;;;;;1.70;1.60;;;23.20;50.50;;;;;;4959090;28;20414;-70
2022/09/03 05:38:56;;;;;;;1.80;1.60;;;23.10;50.40;;;;;;4959137;28;20426;-70
2022/09/03 05:41:23;;;;;;;2.00;1.80;;;23.10;50.50;;;;;;4959194;28;20477;-70
2022/09/03 05:43:55;;;;;;;1.73;1.50;;;23.10;50.50;;;;;;4959058;28;20469;-70
2022/09/03 05:46:30;;;;;;;2.30;1.73;;;23.10;50.60;;;;;;4958812;28;20453;-71
2022/09/03 05:49:02;;;;;;;1.90;1.70;;;23.10;50.60;;;;;;4942733;28;20977;-71
2022/09/03 05:51:34;;;;;;;1.70;1.60;;;23.10;50.70;;;;;;4928059;28;20430;-70
2022/09/03 05:54:04;;;;;;;1.70;1.40;;;23.10;50.80;;;;;;4958677;28;20527;-70
2022/09/03 05:56:34;;;;;;;3.00;1.70;;;23.10;50.80;;;;;;4976029;28;20457;-70
2022/09/03 05:59:04;;;;;;;1.70;1.60;;;23.10;50.90;;;;;;4942744;28;20414;-70
2022/09/03 06:01:32;;;;;;;2.13;1.63;;;23.00;50.90;;;;;;4958589;28;20422;-71
2022/09/03 06:04:02;;;;;;;2.23;1.60;;;23.00;51.00;;;;;;4942494;28;20462;-71
2022/09/03 06:06:33;;;;;;;1.87;1.60;;;23.00;51.00;;;;;;4993279;28;20436;-71
2022/09/03 06:09:20;;;;;;;2.87;1.80;;;23.00;51.10;;;;;;4979867;28;20460;-71
2022/09/03 06:11:49;;;;;;;4.73;1.70;;;23.00;51.20;;;;;;4994195;28;20544;-70
2022/09/03 06:14:17;;;;;;;1.60;1.50;;;23.00;51.20;;;;;;4993974;28;20800;-70
2022/09/03 06:16:51;;;;;;;2.80;2.33;;;23.00;51.30;;;;;;4994775;28;20492;-70
2022/09/03 06:19:22;;;;;;;1.73;1.63;;;23.00;51.40;;;;;;4994989;28;20425;-71
2022/09/03 06:21:48;;;;;;;2.10;1.80;;;22.90;51.90;;;;;;4961485;28;20409;-70
2022/09/03 06:24:25;;;;;;;2.37;1.60;;;22.90;51.40;;;;;;4977674;28;20453;-70
2022/09/03 06:26:54;;;;;;;3.20;1.57;;;22.90;51.50;;;;;;4977086;28;20794;-70
2022/09/03 06:29:21;;;;;;;2.60;1.73;;;22.90;51.60;;;;;;4994529;28;20441;-70
2022/09/03 06:31:50;;;;;;;2.03;1.80;;;22.90;51.70;;;;;;4994545;28;20445;-70
2022/09/03 06:34:18;;;;;;;2.70;2.30;;;22.90;51.70;;;;;;4974365;28;20437;-70
2022/09/03 06:36:45;;;;;;;2.10;1.60;;;22.90;51.80;;;;;;4944050;28;20516;-70
2022/09/03 06:39:11;;;;;;;1.80;1.33;;;22.90;51.80;;;;;;4993658;28;20406;-70
2022/09/03 06:41:39;;;;;;;2.60;1.30;;;22.90;51.80;;;;;;4977145;28;20429;-70
2022/09/03 06:44:11;;;;;;;2.60;1.63;;;22.90;51.90;;;;;;4961192;28;20458;-70
2022/09/03 06:46:41;;;;;;;2.90;1.60;;;22.90;51.90;;;;;;4977103;28;20839;-70
2022/09/03 06:49:07;;;;;;;1.70;1.40;;;22.90;51.90;;;;;;4960760;28;21038;-70
2022/09/03 06:51:34;;;;;;;2.17;1.90;;;22.90;52.00;;;;;;4975275;28;20456;-69
2022/09/03 06:54:06;;;;;;;2.83;1.73;;;22.90;51.90;;;;;;4959178;28;20784;-69
2022/09/03 06:56:38;;;;;;;1.97;1.77;;;22.90;51.90;;;;;;4975078;28;20393;-72
2022/09/03 06:59:13;;;;;;;1.67;1.57;;;22.80;51.80;;;;;;4991548;28;20433;-71
2022/09/03 07:01:40;;;;;;;3.13;1.87;;;22.90;51.90;;;;;;4975150;28;20980;-73
2022/09/03 07:04:07;;;;;;;2.33;1.60;;;22.80;51.80;;;;;;4991788;28;20444;-73
2022/09/03 07:06:39;;;;;;;1.93;1.80;;;22.80;51.80;;;;;;4991615;28;20515;-73
2022/09/03 07:09:08;;;;;;;1.60;1.33;;;22.80;51.80;;;;;;4975492;28;20452;-73
2022/09/03 07:11:45;;;;;;;2.60;1.80;;;22.80;51.80;;;;;;4977436;28;20464;-73
2022/09/03 07:14:15;;;;;;;2.93;2.10;;;22.80;51.80;;;;;;4995534;28;20486;-73
2022/09/03 07:16:44;;;;;;;2.40;1.80;;;22.80;51.80;;;;;;4979239;28;20975;-72
2022/09/03 07:19:14;;;;;;;1.70;1.53;;;22.80;51.80;;;;;;4989261;28;21053;-73
2022/09/03 07:21:41;;;;;;;1.80;1.67;;;22.80;51.80;;;;;;4976073;28;20401;-73
2022/09/03 07:24:09;;;;;;;1.70;1.60;;;22.80;52.00;;;;;;4944161;28;20591;-73
2022/09/03 07:26:40;;;;;;;1.60;1.50;;;22.80;51.90;;;;;;4992725;28;20405;-73
2022/09/03 07:29:10;;;;;;;2.00;1.57;;;22.80;52.00;;;;;;4975758;28;20964;-73
2022/09/03 07:31:42;;;;;;;1.50;1.40;;;22.80;51.90;;;;;;4992229;28;20432;-73
2022/09/03 07:34:11;;;;;;;1.93;1.80;;;22.80;51.90;;;;;;4971537;28;20449;-72
2022/09/03 07:36:40;;;;;;;1.97;1.53;;;22.80;51.90;;;;;;4943910;28;20435;-72
2022/09/03 07:39:06;;;;;;;2.60;2.40;;;22.80;51.90;;;;;;4975647;28;20994;-73
2022/09/03 07:41:35;;;;;;;1.83;1.60;;;22.80;51.90;;;;;;4958691;28;20808;-72
2022/09/03 07:44:04;;;;;;;3.13;2.00;;;22.80;51.90;;;;;;4992624;28;20452;-72
2022/09/03 07:46:39;;;;;;;1.97;1.77;;;22.80;51.90;;;;;;4991335;28;20496;-72
2022/09/03 07:49:05;;;;;;;1.77;1.67;;;22.80;51.90;;;;;;4963718;28;20454;-72
2022/09/03 07:51:37;;;;;;;1.93;1.60;;;22.80;51.90;;;;;;4976135;28;20432;-72
2022/09/03 07:54:10;;;;;;;1.70;1.60;;;22.80;51.90;;;;;;4993523;28;20449;-72
2022/09/03 07:56:38;;;;;;;2.30;1.87;;;22.80;51.90;;;;;;4960099;28;20522;-72
2022/09/03 07:59:04;;;;;;;3.30;1.97;;;22.80;51.90;;;;;;4977146;28;20432;-72
2022/09/03 08:01:31;;;;;;;1.40;1.30;;;22.80;51.90;;;;;;4963501;28;20437;-73
2022/09/03 08:04:01;;;;;;;2.00;1.80;;;22.80;51.90;;;;;;4993503;28;20492;-72
2022/09/03 08:06:28;;;;;;;1.80;1.70;;;22.80;51.90;;;;;;4959235;28;20436;-72
2022/09/03 08:09:03;;;;;;;1.80;1.70;;;22.90;52.00;;;;;;4959920;28;20482;-71
2022/09/03 08:11:35;;;;;;;1.83;1.70;;;22.90;52.00;;;;;;4993217;28;20413;-72
2022/09/03 08:14:09;;;;;;;3.20;1.80;;;22.90;52.00;;;;;;4942895;28;20995;-72
2022/09/03 08:16:41;;;;;;;2.40;1.83;;;22.90;52.00;;;;;;4958809;28;20922;-72
2022/09/03 08:19:08;;;;;;;1.60;1.50;;;22.90;52.00;;;;;;4976112;28;20417;-73
2022/09/03 08:21:34;;;;;;;3.20;1.80;;;22.90;51.90;;;;;;4959256;28;20413;-73
2022/09/03 08:24:01;;;;;;;1.80;1.70;;;22.90;52.00;;;;;;4930227;28;20813;-73
2022/09/03 08:26:32;;;;;;;1.70;1.60;;;22.90;52.00;;;;;;4960603;28;20941;-73
2022/09/03 08:28:59;;;;;;;2.57;1.97;;;22.90;52.00;;;;;;4981745;28;20452;-73
2022/09/03 08:31:26;;;;;;;1.77;1.67;;;22.90;52.00;;;;;;4961999;28;20791;-72
2022/09/03 08:33:57;;;;;;;2.17;1.90;;;22.90;52.00;;;;;;4964150;28;20441;-73
2022/09/03 08:36:31;;;;;;;1.80;1.70;;;22.90;52.00;;;;;;4980446;28;20428;-73
2022/09/03 08:39:03;;;;;;;1.80;1.70;;;22.90;52.00;;;;;;4964011;28;20491;-73
2022/09/03 08:41:42;;;;;;;1.70;1.60;;;23.00;52.00;;;;;;4997052;28;20478;-72
2022/09/03 08:44:47;;;;;;;1.93;1.77;;;23.00;52.00;;;;;;5012261;28;20490;-73
2022/09/03 08:47:32;;;;;;;3.27;1.73;;;23.00;52.00;;;;;;4960562;28;20490;-72
2022/09/03 08:50:14;;;;;;;2.00;1.80;;;23.00;52.00;;;;;;4960858;28;20762;-73
2022/09/03 08:52:49;;;;;;;2.10;2.00;;;23.00;52.10;;;;;;4968742;28;20444;-73
2022/09/03 08:55:26;;;;;;;1.97;1.80;;;23.00;52.00;;;;;;4979972;28;20511;-73
2022/09/03 08:58:09;;;;;;;2.00;1.83;;;23.10;52.00;;;;;;4963972;28;20433;-73
2022/09/03 09:01:20;;;;;;;1.73;1.63;;;23.10;52.00;;;;;;4960323;28;20425;-73
2022/09/03 09:03:55;;;;;;;4.33;2.40;;;23.10;52.10;;;;;;4972144;28;20459;-73
2022/09/03 09:06:43;;;;;;;3.70;1.80;;;23.10;52.10;;;;;;4979708;28;20464;-73
2022/09/03 09:09:30;;;;;;;1.80;1.70;;;23.20;52.10;;;;;;5007373;28;21378;-73
2022/09/03 09:12:21;;;;;;;4.10;1.90;;;23.20;52.20;;;;;;4978843;28;20507;-73
2022/09/03 09:15:05;;;;;;;1.80;1.70;;;23.20;52.10;;;;;;4992048;28;20500;-73
2022/09/03 09:17:52;;;;;;;1.73;1.63;;;23.20;52.10;;;;;;5002934;28;20415;-73
2022/09/03 09:20:21;;;;;;;2.73;1.90;;;23.30;52.10;;;;;;4983003;28;20420;-73
2022/09/03 09:22:54;;;;;;;2.53;2.10;;;23.30;52.10;;;;;;5016125;28;20477;-74
2022/09/03 09:25:23;;;;;;;2.30;2.10;;;23.30;52.10;;;;;;5016049;28;20777;-73
2022/09/03 09:28:03;;;;;;;2.87;1.93;;;23.30;52.10;;;;;;4998460;28;20859;-73
2022/09/03 09:30:31;;;;;;;2.00;1.80;;;23.40;52.10;;;;;;4982349;28;20790;-73
2022/09/03 09:32:59;;;;;;;4.50;1.93;;;23.40;52.10;;;;;;4970377;28;20652;-73
2022/09/03 09:35:28;;;;;;;2.30;1.80;;;23.40;52.10;;;;;;4989236;28;20434;-73
2022/09/03 09:37:59;;;;;;;2.10;1.90;;;23.40;52.00;;;;;;4956011;28;20821;-73
2022/09/03 09:40:40;;;;;;;2.60;1.67;;;23.40;52.00;;;;;;5004426;28;20441;-71
2022/09/03 09:43:20;;;;;;;2.07;1.80;;;23.50;52.10;;;;;;4968695;28;20466;-72
2022/09/03 09:45:52;;;;;;;2.03;1.93;;;23.50;52.20;;;;;;5005210;28;20443;-74
2022/09/03 09:48:30;;;;;;;2.13;1.63;;;23.50;52.20;;;;;;5010089;28;20908;-73
2022/09/03 09:51:12;;;;;;;1.73;1.60;;;23.50;52.10;;;;;;4995336;28;20409;-73
2022/09/03 09:53:39;;;;;;;1.93;1.83;;;23.60;52.20;;;;;;4945475;28;20437;-73
2022/09/03 09:56:06;;;;;;;2.10;1.90;;;23.60;52.20;;;;;;4980431;28;20912;-73
2022/09/03 09:58:33;;;;;;;2.50;1.73;;;23.60;52.20;;;;;;4942854;28;20514;-73
2022/09/03 10:01:09;;;;;;;2.40;1.90;;;23.70;52.30;;;;;;4975581;28;20465;-73
2022/09/03 10:03:38;;;;;;;3.40;2.00;;;23.70;52.30;;;;;;4958440;28;20450;-73
2022/09/03 10:09:36;;;;;;;2.07;1.87;;;23.80;52.40;;;;;;4977543;28;20473;-73
2022/09/03 10:12:29;;;;;;;3.67;1.90;;;23.80;52.40;;;;;;4961205;28;20475;-74
2022/09/03 10:15:25;;;;;;;1.90;1.80;;;23.80;52.60;;;;;;4977221;28;20445;-73
2022/09/03 10:18:24;;;;;;;2.10;2.00;;;23.80;52.50;;;;;;4995563;28;20892;-72
2022/09/03 10:20:58;;;;;;;2.00;1.90;;;23.90;52.60;;;;;;4939306;29;20463;-71
2022/09/03 10:23:32;;;;;;;2.23;2.03;;;23.90;52.70;;;;;;4941005;29;20534;-71
2022/09/03 10:26:10;;;;;;;2.50;2.10;;;23.90;52.70;;;;;;4914058;29;20433;-72
2022/09/03 10:28:43;;;;;;;1.77;1.67;;;24.00;52.70;;;;;;4905360;29;20486;-72
2022/09/03 10:31:35;;;;;;;1.63;1.53;;;24.00;52.70;;;;;;4893531;29;20586;-71
2022/09/03 10:34:33;;;;;;;2.50;2.07;;;24.00;52.80;;;;;;4931354;29;20454;-72
2022/09/03 10:37:27;;;;;;;3.43;2.17;;;24.10;52.80;;;;;;4907743;29;20443;-74
2022/09/03 10:39:59;;;;;;;4.03;2.20;;;24.10;52.80;;;;;;4934620;29;20452;-72
2022/09/03 10:42:25;;;;;;;1.93;1.83;;;24.10;52.80;;;;;;4916186;29;20519;-72
2022/09/03 10:45:18;;;;;;;2.60;2.40;;;24.20;52.90;;;;;;4921116;29;20457;-72
2022/09/03 10:48:05;;;;;;;2.33;2.00;;;24.20;52.90;;;;;;4884759;29;20452;-72
2022/09/03 10:50:43;;;;;;;2.50;2.30;;;24.30;53.50;;;;;;4918763;29;20984;-72
2022/09/03 10:53:40;;;;;;;2.40;2.20;;;24.30;53.00;;;;;;4950767;29;20447;-72
2022/09/03 10:56:16;;;;;;;2.20;2.00;;;24.40;53.10;;;;;;4935014;29;20435;-73
2022/09/03 10:59:05;;;;;;;3.70;2.33;;;24.40;53.10;;;;;;4905439;29;20454;-72
2022/09/03 11:01:45;;;;;;;2.27;2.17;;;24.40;53.10;;;;;;4952816;29;20498;-72
2022/09/03 11:04:18;;;;;;;2.63;2.40;;;24.40;53.10;;;;;;4933240;29;20845;-72
2022/09/03 11:07:00;;;;;;;2.20;2.00;;;24.40;53.10;;;;;;4903133;29;20442;-72
2022/09/03 11:09:47;;;;;;;2.40;2.20;;;24.50;53.20;;;;;;4918295;29;20483;-72
2022/09/03 11:12:32;;;;;;;2.50;2.30;;;24.50;53.30;;;;;;4935714;29;20416;-72
2022/09/03 11:15:12;;;;;;;2.77;2.57;;;24.50;53.30;;;;;;4924865;29;20455;-72
2022/09/03 11:17:51;;;;;;;2.10;2.00;;;24.50;53.30;;;;;;4922051;29;20530;-72
2022/09/03 11:20:54;;;;;;;2.60;2.40;;;24.50;53.30;;;;;;4944646;29;20467;-73
2022/09/03 11:23:23;;;;;;;2.43;2.27;;;24.60;53.30;;;;;;4927003;29;20443;-72
2022/09/03 11:25:53;;;;;;;3.90;2.60;;;24.60;53.50;;;;;;4938148;29;20488;-71
2022/09/03 11:28:22;;;;;;;2.60;2.13;;;24.60;53.40;;;;;;4933595;29;20817;-73
2022/09/03 11:31:03;;;;;;;2.30;2.10;;;24.70;53.50;;;;;;4941659;29;20438;-73
2022/09/03 11:33:34;;;;;;;2.63;2.07;;;24.70;53.60;;;;;;4931741;29;20448;-73
2022/09/03 11:36:07;;;;;;;2.83;2.27;;;24.70;53.50;;;;;;4935224;29;20490;-73
2022/09/03 11:38:34;;;;;;;2.60;2.40;;;24.70;53.50;;;;;;4897726;29;20492;-73
2022/09/03 11:41:13;;;;;;;3.20;2.90;;;24.80;53.60;;;;;;4919396;29;20443;-73
2022/09/03 11:43:41;;;;;;;2.60;2.30;;;24.80;53.60;;;;;;4931056;29;20831;-73
2022/09/03 11:46:21;;;;;;;2.70;2.47;;;24.80;53.70;;;;;;4920818;29;20475;-73
2022/09/03 11:48:54;;;;;;;2.60;2.40;;;24.90;53.70;;;;;;4930513;29;20473;-72
2022/09/03 11:51:36;;;;;;;2.90;2.70;;;24.90;53.70;;;;;;4919899;29;20400;-73
2022/09/03 11:54:15;;;;;;;3.13;2.30;;;24.90;53.60;;;;;;4919774;29;20475;-73
2022/09/03 11:56:44;;;;;;;2.57;2.47;;;24.90;53.50;;;;;;4924653;29;20589;-72
2022/09/03 11:59:13;;;;;;;2.30;2.20;;;24.90;53.50;;;;;;4911086;29;20524;-72
2022/09/03 12:02:09;;;;;;;2.17;2.07;;;25.00;53.50;;;;;;4917940;29;20431;-73
2022/09/03 12:04:59;;;;;;;4.07;2.40;;;25.00;53.50;;;;;;4915368;29;20490;-73
2022/09/03 12:07:37;;;;;;;6.03;2.40;;;25.00;53.40;;;;;;4922091;29;20428;-73
2022/09/03 12:10:26;;;;;;;2.50;2.30;;;25.00;53.40;;;;;;4927901;29;20446;-73
2022/09/03 12:12:58;;;;;;;2.77;2.57;;;25.00;53.60;;;;;;4915741;29;20443;-73
2022/09/03 12:15:33;;;;;;;2.87;2.60;;;25.10;53.70;;;;;;4935148;29;20479;-73
2022/09/03 12:18:18;;;;;;;2.70;2.50;;;25.10;53.70;;;;;;4919716;29;20441;-73
2022/09/03 12:21:05;;;;;;;2.80;2.60;;;25.10;53.60;;;;;;4934975;29;20446;-73
2022/09/03 12:23:39;;;;;;;2.80;2.60;;;25.20;53.60;;;;;;4936878;29;20503;-73
2022/09/03 12:26:16;;;;;;;3.30;2.37;;;25.20;53.60;;;;;;4946697;29;20454;-73
2022/09/03 12:28:45;;;;;;;2.53;2.33;;;25.20;53.50;;;;;;4910647;29;20472;-73
2022/09/03 12:31:24;;;;;;;2.47;2.27;;;25.20;53.50;;;;;;4924135;29;20914;-73
2022/09/03 12:34:06;;;;;;;2.60;2.30;;;25.20;53.40;;;;;;4926682;29;20465;-73
2022/09/03 12:36:43;;;;;;;3.70;2.70;;;25.30;53.40;;;;;;4920931;29;20452;-73
2022/09/03 12:39:09;;;;;;;2.70;2.50;;;25.30;53.40;;;;;;4921504;29;20784;-73
2022/09/03 12:42:10;;;;;;;2.63;2.43;;;25.30;53.30;;;;;;4937094;29;20809;-73
2022/09/03 12:44:36;;;;;;;2.50;2.30;;;25.30;53.40;;;;;;4941265;29;20534;-73
2022/09/03 12:47:17;;;;;;;2.60;2.40;;;25.30;53.40;;;;;;4937042;29;20913;-73
2022/09/03 12:49:50;;;;;;;3.80;2.57;;;25.40;53.40;;;;;;4910188;29;20229;-73
2022/09/03 12:52:50;;;;;;;2.60;2.40;;;25.40;53.40;;;;;;4951808;29;20422;-73
2022/09/03 12:55:28;;;;;;;2.70;2.50;;;25.40;53.40;;;;;;4923739;29;20457;-72
2022/09/03 12:58:04;;;;;;;3.60;2.90;;;25.40;53.40;;;;;;4925387;29;20431;-73
2022/09/03 13:00:37;;;;;;;3.23;2.53;;;25.50;53.40;;;;;;4931511;29;20451;-72
2022/09/03 13:03:23;;;;;;;2.83;2.63;;;25.50;53.40;;;;;;4934107;29;20416;-72
2022/09/03 13:06:01;;;;;;;3.10;2.40;;;25.50;53.40;;;;;;4922425;29;20932;-72
2022/09/03 13:08:40;;;;;;;2.57;2.37;;;25.50;53.50;;;;;;4934842;29;20471;-72
2022/09/03 13:11:07;;;;;;;3.07;2.77;;;25.60;53.40;;;;;;4907460;29;20438;-72
2022/09/03 13:13:38;;;;;;;4.20;2.60;;;25.60;53.40;;;;;;4914136;29;20465;-72
2022/09/03 13:16:23;;;;;;;2.80;2.60;;;25.60;53.50;;;;;;4920429;29;20792;-72
2022/09/03 13:19:27;;;;;;;2.90;2.70;;;25.60;53.50;;;;;;4931653;29;20451;-72
2022/09/03 13:22:08;;;;;;;2.73;2.50;;;25.60;53.50;;;;;;4928228;29;20427;-72
2022/09/03 13:24:42;;;;;;;3.27;2.97;;;25.70;53.60;;;;;;4929286;29;20528;-73
2022/09/03 13:27:35;;;;;;;2.97;2.77;;;25.70;53.50;;;;;;4937040;29;20469;-73
2022/09/03 13:30:15;;;;;;;2.77;2.57;;;25.70;53.60;;;;;;4928017;29;20879;-73